Observation data for Anton on 10/13/2019      Previous  Date       Current Mesonet Observations  Soil Data  Daily Summary Page  Observations in Plain Language
KAOS 130500Z 19009KT 11/01 A2999 RMK A01 T01100005  RH  049%=      5-min Rain = 0
KAOS 130505Z 19009G14KT 11/00 A2999 RMK A01 T01120003  RH  048%=      5-min Rain = 0
KAOS 130510Z 20009G14KT 11/00 A2999 RMK A01 T01130003  RH  047%=      5-min Rain = 0
KAOS 130515Z 19007G12KT 11/00 A2999 RMK A01 T01140002  RH  046%=      5-min Rain = 0
KAOS 130520Z 19006KT 11/00 A2999 RMK A01 T01130002  RH  047%=      5-min Rain = 0
KAOS 130525Z 19007KT 11/00 A2999 RMK A01 T01120003  RH  047%=      5-min Rain = 0
KAOS 130530Z 19009KT 11/00 A2999 RMK A01 T01100003  RH  048%=      5-min Rain = 0
KAOS 130535Z 19009G14KT 11/00 A2998 RMK A01 T01100003  RH  048%=      5-min Rain = 0
KAOS 130540Z 19008KT 11/00 A2998 RMK A01 T01080004  RH  049%=      5-min Rain = 0
KAOS 130545Z 20010KT 11/00 A2998 RMK A01 T01090004  RH  049%=      5-min Rain = 0
KAOS 130550Z 20010G15KT 11/00 A2998 RMK A01 T01120003  RH  048%=      5-min Rain = 0
KAOS 130555Z 20009KT 11/00 A2998 RMK A01 T01130003  RH  047%=      5-min Rain = 0
KAOS 130600Z 21008KT 12/00 A2999 RMK A01 T01160002  RH  046%=      5-min Rain = 0
KAOS 130605Z 22007KT 12/00 A2999 RMK A01 T01170002  RH  046%=      5-min Rain = 0
KAOS 130610Z 23006KT 12/00 A2999 RMK A01 T01170002  RH  046%=      5-min Rain = 0
KAOS 130615Z 22008KT 12/00 A2999 RMK A01 T01160002  RH  046%=      5-min Rain = 0
KAOS 130620Z 22008KT 11/00 A2999 RMK A01 T01140002  RH  047%=      5-min Rain = 0
KAOS 130625Z 21009KT 11/00 A2999 RMK A01 T01120003  RH  047%=      5-min Rain = 0
KAOS 130630Z 21009KT 11/00 A2999 RMK A01 T01110002  RH  048%=      5-min Rain = 0
KAOS 130635Z 21009KT 11/00 A2999 RMK A01 T01100002  RH  048%=      5-min Rain = 0
KAOS 130640Z 21009KT 11/00 A2998 RMK A01 T01080002  RH  049%=      5-min Rain = 0
KAOS 130645Z 21008KT 11/00 A2999 RMK A01 T01080001  RH  048%=      5-min Rain = 0
KAOS 130650Z 21008KT 11/00 A2999 RMK A01 T01090000  RH  048%=      5-min Rain = 0
KAOS 130655Z 21008KT 11/00 A2999 RMK A01 T011000-0  RH  047%=      5-min Rain = 0
KAOS 130700Z 21009KT 11/M00 A2999 RMK A01 T01101001  RH  047%=      5-min Rain = 0
KAOS 130705Z 21010G15KT 11/M00 A2998 RMK A01 T01101001  RH  047%=      5-min Rain = 0
KAOS 130710Z 22010KT 11/M00 A2998 RMK A01 T01101001  RH  047%=      5-min Rain = 0
KAOS 130715Z 22009KT 11/M00 A2998 RMK A01 T01101001  RH  047%=      5-min Rain = 0
KAOS 130720Z 22009KT 11/00 A2998 RMK A01 T010900-0  RH  047%=      5-min Rain = 0
KAOS 130725Z 22009KT 11/00 A2998 RMK A01 T010900-0  RH  047%=      5-min Rain = 0
KAOS 130730Z 22008KT 11/00 A2998 RMK A01 T01090000  RH  048%=      5-min Rain = 0
KAOS 130735Z 23007KT 11/00 A2998 RMK A01 T01080001  RH  048%=      5-min Rain = 0
KAOS 130740Z 23007KT 11/00 A2998 RMK A01 T01050001  RH  049%=      5-min Rain = 0
KAOS 130745Z 23007KT 10/00 A2998 RMK A01 T01040002  RH  050%=      5-min Rain = 0
KAOS 130750Z 23007KT 10/00 A2998 RMK A01 T01040002  RH  050%=      5-min Rain = 0
KAOS 130755Z 22008KT 11/00 A2998 RMK A01 T01050003  RH  050%=      5-min Rain = 0
KAOS 130800Z 22008KT 10/00 A2998 RMK A01 T01040003  RH  050%=      5-min Rain = 0
KAOS 130805Z 22007KT 10/00 A2998 RMK A01 T01030003  RH  051%=      5-min Rain = 0
KAOS 130810Z 23005KT 10/00 A2998 RMK A01 T01020004  RH  051%=      5-min Rain = 0
KAOS 130815Z 24004KT 10/00 A2998 RMK A01 T01010003  RH  051%=      5-min Rain = 0
KAOS 130820Z 24004KT 10/00 A2998 RMK A01 T01000003  RH  052%=      5-min Rain = 0
KAOS 130825Z 23004KT 10/00 A2998 RMK A01 T00970003  RH  053%=      5-min Rain = 0
KAOS 130830Z 24002KT 10/00 A2999 RMK A01 T00950004  RH  053%=      5-min Rain = 0
KAOS 130835Z 25002KT 09/00 A2999 RMK A01 T00940004  RH  054%=      5-min Rain = 0
KAOS 130840Z 22003KT 09/00 A2998 RMK A01 T00930004  RH  054%=      5-min Rain = 0
KAOS 130845Z 22003KT 09/01 A2998 RMK A01 T00900005  RH  056%=      5-min Rain = 0
KAOS 130850Z 22004KT 09/01 A2998 RMK A01 T00870005  RH  057%=      5-min Rain = 0
KAOS 130855Z 22004KT 08/01 A2997 RMK A01 T00840005  RH  058%=      5-min Rain = 0
KAOS 130900Z 23004KT 08/01 A2997 RMK A01 T00830006  RH  059%=      5-min Rain = 0
KAOS 130905Z 26003KT 08/01 A2997 RMK A01 T00840005  RH  059%=      5-min Rain = 0
KAOS 130910Z 30005KT 08/01 A2998 RMK A01 T00820006  RH  060%=      5-min Rain = 0
KAOS 130915Z 26005KT 08/01 A2997 RMK A01 T00780006  RH  061%=      5-min Rain = 0
KAOS 130920Z 24005KT 08/01 A2997 RMK A01 T00780005  RH  061%=      5-min Rain = 0
KAOS 130925Z 25004KT 08/01 A2997 RMK A01 T00770005  RH  061%=      5-min Rain = 0
KAOS 130930Z 26004KT 08/01 A2997 RMK A01 T00770005  RH  061%=      5-min Rain = 0
KAOS 130935Z 29004KT 08/01 A2997 RMK A01 T00760007  RH  062%=      5-min Rain = 0
KAOS 130940Z 29005KT 07/01 A2997 RMK A01 T00720006  RH  064%=      5-min Rain = 0
KAOS 130945Z 27004KT 07/01 A2997 RMK A01 T00690007  RH  065%=      5-min Rain = 0
KAOS 130950Z 26004KT 07/01 A2997 RMK A01 T00680006  RH  066%=      5-min Rain = 0
KAOS 130955Z 26004KT 07/01 A2997 RMK A01 T00660006  RH  066%=      5-min Rain = 0
KAOS 131000Z 25004KT 06/01 A2997 RMK A01 T00640006  RH  067%=      5-min Rain = 0
KAOS 131005Z 25004KT 06/01 A2997 RMK A01 T00620007  RH  069%=      5-min Rain = 0
KAOS 131010Z 24005KT 07/01 A2997 RMK A01 T00650006  RH  067%=      5-min Rain = 0
KAOS 131015Z 23005KT 07/01 A2997 RMK A01 T00670006  RH  066%=      5-min Rain = 0
KAOS 131020Z 24004KT 06/01 A2997 RMK A01 T00620008  RH  069%=      5-min Rain = 0
KAOS 131025Z 22004KT 06/01 A2997 RMK A01 T00590008  RH  070%=      5-min Rain = 0
KAOS 131030Z 21005KT 06/01 A2997 RMK A01 T00550008  RH  073%=      5-min Rain = 0
KAOS 131035Z 20005KT 05/01 A2997 RMK A01 T00520008  RH  074%=      5-min Rain = 0
KAOS 131040Z 20005KT 05/01 A2997 RMK A01 T00500007  RH  075%=      5-min Rain = 0
KAOS 131045Z 20004KT 05/01 A2997 RMK A01 T00490007  RH  075%=      5-min Rain = 0
KAOS 131050Z 21004KT 05/01 A2997 RMK A01 T00500007  RH  075%=      5-min Rain = 0
KAOS 131055Z 22005KT 05/01 A2997 RMK A01 T00530008  RH  074%=      5-min Rain = 0
KAOS 131100Z 22006KT 06/01 A2997 RMK A01 T00560009  RH  073%=      5-min Rain = 0
KAOS 131105Z 22006KT 06/01 A2997 RMK A01 T00590009  RH  071%=      5-min Rain = 0
KAOS 131110Z 23006KT 06/01 A2997 RMK A01 T00610009  RH  070%=      5-min Rain = 0
KAOS 131115Z 23007KT 06/01 A2997 RMK A01 T00620009  RH  069%=      5-min Rain = 0
KAOS 131120Z 23006KT 06/01 A2997 RMK A01 T00640009  RH  069%=      5-min Rain = 0
KAOS 131125Z 23006KT 06/01 A2997 RMK A01 T00640009  RH  069%=      5-min Rain = 0
KAOS 131130Z 23006KT 07/01 A2997 RMK A01 T00650009  RH  068%=      5-min Rain = 0
KAOS 131135Z 24005KT 07/01 A2997 RMK A01 T00650009  RH  068%=      5-min Rain = 0
KAOS 131140Z 24005KT 06/01 A2997 RMK A01 T00640009  RH  069%=      5-min Rain = 0
KAOS 131145Z 24005KT 06/01 A2997 RMK A01 T00640009  RH  069%=      5-min Rain = 0
KAOS 131150Z 26003KT 06/01 A2997 RMK A01 T00640010  RH  069%=      5-min Rain = 0
KAOS 131155Z 26003KT 06/01 A2997 RMK A01 T00630010  RH  070%=      5-min Rain = 0
KAOS 131200Z 23003KT 06/01 A2997 RMK A01 T00630010  RH  070%=      5-min Rain = 0
KAOS 131205Z 23003KT 06/01 A2997 RMK A01 T00560009  RH  073%=      5-min Rain = 0
KAOS 131210Z 25004KT 05/01 A2998 RMK A01 T00530011  RH  076%=      5-min Rain = 0
KAOS 131215Z 26003KT 06/01 A2998 RMK A01 T00550012  RH  075%=      5-min Rain = 0
KAOS 131220Z 24004KT 06/01 A2998 RMK A01 T00570011  RH  073%=      5-min Rain = 0
KAOS 131225Z 23003KT 06/01 A2998 RMK A01 T00550011  RH  074%=      5-min Rain = 0
KAOS 131230Z 21004KT 05/01 A2998 RMK A01 T00530011  RH  076%=      5-min Rain = 0
KAOS 131235Z 21005KT 05/01 A2998 RMK A01 T00470010  RH  078%=      5-min Rain = 0
KAOS 131240Z 21005KT 04/01 A2998 RMK A01 T00420009  RH  080%=      5-min Rain = 0
KAOS 131245Z 21006KT 04/01 A2998 RMK A01 T00420011  RH  081%=      5-min Rain = 0
KAOS 131250Z 22006KT 05/01 A2998 RMK A01 T00470013  RH  080%=      5-min Rain = 0
KAOS 131255Z 24005KT 05/02 A2998 RMK A01 T00520015  RH  078%=      5-min Rain = 0
KAOS 131300Z 25006KT 06/02 A2998 RMK A01 T00550016  RH  077%=      5-min Rain = 0
KAOS 131305Z 26005KT 06/02 A2998 RMK A01 T00570017  RH  076%=      5-min Rain = 0
KAOS 131310Z 28004KT 06/02 A2998 RMK A01 T00610018  RH  075%=      5-min Rain = 0
KAOS 131315Z 27004KT 06/02 A2998 RMK A01 T00630019  RH  075%=      5-min Rain = 0
KAOS 131320Z 25004KT 07/02 A2998 RMK A01 T00670021  RH  074%=      5-min Rain = 0
KAOS 131325Z 25003KT 07/02 A2998 RMK A01 T00710022  RH  072%=      5-min Rain = 0
KAOS 131330Z 25003KT 08/02 A2998 RMK A01 T00760024  RH  071%=      5-min Rain = 0
KAOS 131335Z 26003KT 08/03 A2998 RMK A01 T00810026  RH  070%=      5-min Rain = 0
KAOS 131340Z 26002KT 09/03 A2998 RMK A01 T00880029  RH  067%=      5-min Rain = 0
KAOS 131345Z 24000KT 10/03 A2999 RMK A01 T00960031  RH  065%=      5-min Rain = 0
KAOS 131350Z 22002KT 10/03 A2999 RMK A01 T01000031  RH  064%=      5-min Rain = 0
KAOS 131355Z 15002KT 10/03 A2999 RMK A01 T00990032  RH  064%=      5-min Rain = 0
KAOS 131400Z 19003KT 10/03 A2999 RMK A01 T00950032  RH  066%=      5-min Rain = 0
KAOS 131405Z 23003KT 10/03 A2999 RMK A01 T01010034  RH  064%=      5-min Rain = 0
KAOS 131410Z 25004KT 11/03 A2999 RMK A01 T01080032  RH  060%=      5-min Rain = 0
KAOS 131415Z 26003KT 11/03 A2999 RMK A01 T01130033  RH  059%=      5-min Rain = 0
KAOS 131420Z 25004KT 12/03 A30 RMK A01 T01160034  RH  058%=      5-min Rain = 0
KAOS 131425Z 25005KT 12/03 A30 RMK A01 T01190033  RH  057%=      5-min Rain = 0
KAOS 131430Z 26004KT 12/03 A30 RMK A01 T01230033  RH  055%=      5-min Rain = 0
KAOS 131435Z 25006KT 13/03 A30 RMK A01 T01250032  RH  054%=      5-min Rain = 0
KAOS 131440Z 26005KT 13/03 A30 RMK A01 T01270033  RH  054%=      5-min Rain = 0
KAOS 131445Z 25005KT 13/04 A30 RMK A01 T01300035  RH  053%=      5-min Rain = 0
KAOS 131450Z 27006KT 14/04 A30 RMK A01 T01360036  RH  052%=      5-min Rain = 0
KAOS 131455Z 27005KT 14/04 A30 RMK A01 T01430037  RH  050%=      5-min Rain = 0
KAOS 131500Z 28005KT 15/04 A30 RMK A01 T01480038  RH  048%=      5-min Rain = 0
KAOS 131505Z 28005KT 15/04 A30 RMK A01 T01530040  RH  048%=      5-min Rain = 0
KAOS 131510Z 28006KT 16/04 A30 RMK A01 T01610040  RH  046%=      5-min Rain = 0
KAOS 131515Z 28007KT 17/04 A30 RMK A01 T01670039  RH  043%=      5-min Rain = 0
KAOS 131520Z 28008KT 17/04 A3001 RMK A01 T01730038  RH  042%=      5-min Rain = 0
KAOS 131525Z 27008KT 18/04 A30 RMK A01 T01780039  RH  040%=      5-min Rain = 0
KAOS 131530Z 28008KT 19/04 A30 RMK A01 T01850037  RH  038%=      5-min Rain = 0
KAOS 131535Z 28009KT 19/04 A30 RMK A01 T01900035  RH  036%=      5-min Rain = 0
KAOS 131540Z 28009G14KT 19/04 A3001 RMK A01 T01930036  RH  036%=      5-min Rain = 0
KAOS 131545Z 27009KT 20/04 A3001 RMK A01 T01960036  RH  035%=      5-min Rain = 0
KAOS 131550Z 28008KT 20/04 A3001 RMK A01 T01990037  RH  035%=      5-min Rain = 0
KAOS 131555Z 28010KT 20/04 A3001 RMK A01 T02020036  RH  034%=      5-min Rain = 0
KAOS 131600Z 29010KT 21/04 A3001 RMK A01 T02060036  RH  033%=      5-min Rain = 0
KAOS 131605Z 29009KT 21/04 A3001 RMK A01 T02090036  RH  033%=      5-min Rain = 0
KAOS 131610Z 28009KT 21/04 A3001 RMK A01 T02080036  RH  033%=      5-min Rain = 0
KAOS 131615Z 29009KT 21/04 A3001 RMK A01 T02120037  RH  032%=      5-min Rain = 0
KAOS 131620Z 28008KT 22/04 A3001 RMK A01 T02170038  RH  031%=      5-min Rain = 0
KAOS 131625Z 29007KT 22/04 A3001 RMK A01 T02210039  RH  031%=      5-min Rain = 0
KAOS 131630Z 29009KT 22/04 A3001 RMK A01 T02240035  RH  029%=      5-min Rain = 0
KAOS 131635Z 31010KT 22/04 A3001 RMK A01 T02230035  RH  030%=      5-min Rain = 0
KAOS 131640Z 30009KT 23/04 A30 RMK A01 T02260036  RH  029%=      5-min Rain = 0
KAOS 131645Z 29008G13KT 23/04 A30 RMK A01 T02290037  RH  029%=      5-min Rain = 0
KAOS 131650Z 28010KT 23/04 A30 RMK A01 T02290035  RH  029%=      5-min Rain = 0
KAOS 131655Z 27007KT 23/04 A30 RMK A01 T02280036  RH  029%=      5-min Rain = 0
KAOS 131700Z 26008KT 23/04 A30 RMK A01 T02330039  RH  029%=      5-min Rain = 0
KAOS 131705Z 28007KT 24/04 A30 RMK A01 T02370039  RH  028%=      5-min Rain = 0
KAOS 131710Z 27008KT 24/04 A30 RMK A01 T02410036  RH  027%=      5-min Rain = 0
KAOS 131715Z 28006KT 24/04 A30 RMK A01 T02430040  RH  027%=      5-min Rain = 0
KAOS 131720Z 30007KT 25/04 A30 RMK A01 T02460037  RH  026%=      5-min Rain = 0
KAOS 131725Z 28007G12KT 25/03 A30 RMK A01 T02510034  RH  025%=      5-min Rain = 0
KAOS 131730Z 31008KT 25/03 A30 RMK A01 T02540033  RH  024%=      5-min Rain = 0
KAOS 131735Z 30006KT 26/03 A30 RMK A01 T02550032  RH  024%=      5-min Rain = 0
KAOS 131740Z 28008G14KT 26/03 A2999 RMK A01 T02580026  RH  023%=      5-min Rain = 0
KAOS 131745Z 29010KT 26/02 A2999 RMK A01 T02610023  RH  022%=      5-min Rain = 0
KAOS 131750Z 29008G13KT 26/02 A2999 RMK A01 T02640023  RH  021%=      5-min Rain = 0
KAOS 131755Z 29007KT 27/03 A2999 RMK A01 T02650027  RH  022%=      5-min Rain = 0
KAOS 131800Z 29007G15KT 27/03 A2999 RMK A01 T02660025  RH  021%=      5-min Rain = 0
KAOS 131805Z 31008KT 27/03 A2999 RMK A01 T02680025  RH  021%=      5-min Rain = 0
KAOS 131810Z 31007KT 27/02 A2999 RMK A01 T02690024  RH  021%=      5-min Rain = 0
KAOS 131815Z 30004G9KT 27/02 A2999 RMK A01 T02660023  RH  021%=      5-min Rain = 0
KAOS 131820Z 29009KT 27/02 A2998 RMK A01 T02730020  RH  020%=      5-min Rain = 0
KAOS 131825Z 27010G15KT 27/01 A2998 RMK A01 T02740014  RH  019%=      5-min Rain = 0
KAOS 131830Z 29009KT 28/01 A2998 RMK A01 T02750013  RH  019%=      5-min Rain = 0
KAOS 131835Z 30012G18KT 28/01 A2998 RMK A01 T02760008  RH  018%=      5-min Rain = 0
KAOS 131840Z 29010G17KT 28/01 A2998 RMK A01 T02790008  RH  017%=      5-min Rain = 0
KAOS 131845Z 30009G15KT 28/01 A2997 RMK A01 T02770005  RH  017%=      5-min Rain = 0
KAOS 131850Z 30010KT 28/00 A2997 RMK A01 T02800004  RH  017%=      5-min Rain = 0
KAOS 131855Z 29012G19KT 28/00 A2997 RMK A01 T02810001  RH  016%=      5-min Rain = 0
KAOS 131900Z 29010G15KT 28/M00 A2997 RMK A01 T02801001  RH  016%=      5-min Rain = 0
KAOS 131905Z 28010G15KT 28/00 A2996 RMK A01 T02810000  RH  016%=      5-min Rain = 0
KAOS 131910Z 29012G18KT 28/M00 A2996 RMK A01 T02821001  RH  016%=      5-min Rain = 0
KAOS 131915Z 28012G18KT 28/00 A2996 RMK A01 T02830001  RH  016%=      5-min Rain = 0
KAOS 131920Z 28010G16KT 28/00 A2996 RMK A01 T02840004  RH  016%=      5-min Rain = 0
KAOS 131925Z 30009G16KT 28/00 A2995 RMK A01 T02840002  RH  016%=      5-min Rain = 0
KAOS 131930Z 27010KT 28/00 A2995 RMK A01 T02840003  RH  016%=      5-min Rain = 0
KAOS 131935Z 29010G16KT 29/00 A2995 RMK A01 T02880004  RH  016%=      5-min Rain = 0
KAOS 131940Z 30011G17KT 29/00 A2995 RMK A01 T02880000  RH  016%=      5-min Rain = 0
KAOS 131945Z 28011KT 29/M00 A2995 RMK A01 T02891003  RH  015%=      5-min Rain = 0
KAOS 131950Z 26007G15KT 29/M00 A2995 RMK A01 T02871003  RH  015%=      5-min Rain = 0
KAOS 131955Z 26012G17KT 29/M01 A2994 RMK A01 T02881007  RH  015%=      5-min Rain = 0
KAOS 132000Z 25010G18KT 29/M01 A2994 RMK A01 T02891008  RH  015%=      5-min Rain = 0
KAOS 132005Z 26009KT 29/M01 A2994 RMK A01 T02891009  RH  015%=      5-min Rain = 0
KAOS 132010Z 27011KT 29/M01 A2994 RMK A01 T02891012  RH  014%=      5-min Rain = 0
KAOS 132015Z 25010G15KT 29/M01 A2994 RMK A01 T02901013  RH  014%=      5-min Rain = 0
KAOS 132020Z 26011G22KT 29/M01 A2993 RMK A01 T02901014  RH  014%=      5-min Rain = 0
KAOS 132025Z 26011G18KT 29/M02 A2993 RMK A01 T02881016  RH  014%=      5-min Rain = 0
KAOS 132030Z 24012G21KT 29/M02 A2993 RMK A01 T02901017  RH  014%=      5-min Rain = 0
KAOS 132035Z 24012G17KT 30/M02 A2993 RMK A01 T02951019  RH  013%=      5-min Rain = 0
KAOS 132040Z 23010G15KT 29/M02 A2993 RMK A01 T02901021  RH  013%=      5-min Rain = 0
KAOS 132045Z 27011G16KT 29/M01 A2993 RMK A01 T02911013  RH  014%=      5-min Rain = 0
KAOS 132050Z 28008KT 29/M01 A2993 RMK A01 T02921011  RH  014%=      5-min Rain = 0
KAOS 132055Z 25011G18KT 29/M01 A2993 RMK A01 T02931013  RH  014%=      5-min Rain = 0
KAOS 132100Z 24011G16KT 29/M02 A2993 RMK A01 T02931017  RH  013%=      5-min Rain = 0
KAOS 132105Z 26008G14KT 29/M02 A2993 RMK A01 T02901016  RH  014%=      5-min Rain = 0
KAOS 132110Z 24009KT 29/M01 A2993 RMK A01 T02911014  RH  014%=      5-min Rain = 0
KAOS 132115Z 24010G15KT 29/M01 A2993 RMK A01 T02901013  RH  014%=      5-min Rain = 0
KAOS 132120Z 25009KT 29/M01 A2993 RMK A01 T02901012  RH  014%=      5-min Rain = 0
KAOS 132125Z 26011KT 29/M01 A2993 RMK A01 T02901014  RH  014%=      5-min Rain = 0
KAOS 132130Z 26009KT 29/M01 A2993 RMK A01 T02901013  RH  014%=      5-min Rain = 0
KAOS 132135Z 25008G17KT 29/M01 A2993 RMK A01 T02901012  RH  014%=      5-min Rain = 0
KAOS 132140Z 24010G16KT 29/M02 A2993 RMK A01 T02911020  RH  013%=      5-min Rain = 0
KAOS 132145Z 26011G16KT 29/M02 A2993 RMK A01 T02921016  RH  014%=      5-min Rain = 0
KAOS 132150Z 24010G15KT 29/M02 A2993 RMK A01 T02901020  RH  013%=      5-min Rain = 0
KAOS 132155Z 25009G14KT 29/M02 A2993 RMK A01 T02911020  RH  013%=      5-min Rain = 0
KAOS 132200Z 25012G17KT 29/M02 A2993 RMK A01 T02911023  RH  013%=      5-min Rain = 0
KAOS 132205Z 25009G14KT 29/M03 A2994 RMK A01 T02901026  RH  013%=      5-min Rain = 0
KAOS 132210Z 25009KT 29/M03 A2993 RMK A01 T02901025  RH  013%=      5-min Rain = 0
KAOS 132215Z 28010G15KT 29/M03 A2993 RMK A01 T02871026  RH  013%=      5-min Rain = 0
KAOS 132220Z 27009KT 29/M03 A2993 RMK A01 T02881025  RH  013%=      5-min Rain = 0
KAOS 132225Z 24010G15KT 29/M02 A2993 RMK A01 T02881024  RH  013%=      5-min Rain = 0
KAOS 132230Z 22010G15KT 29/M02 A2993 RMK A01 T02871024  RH  013%=      5-min Rain = 0
KAOS 132235Z 25008KT 29/M02 A2993 RMK A01 T02871022  RH  013%=      5-min Rain = 0
KAOS 132240Z 25007G12KT 29/M02 A2994 RMK A01 T02871024  RH  013%=      5-min Rain = 0
KAOS 132245Z 25008KT 29/M03 A2994 RMK A01 T02871028  RH  013%=      5-min Rain = 0
KAOS 132250Z 24007G12KT 28/M03 A2994 RMK A01 T02841032  RH  013%=      5-min Rain = 0
KAOS 132255Z 24008KT 28/M03 A2994 RMK A01 T02841028  RH  013%=      5-min Rain = 0
KAOS 132300Z 25008KT 28/M03 A2994 RMK A01 T02841027  RH  013%=      5-min Rain = 0
KAOS 132305Z 25007KT 28/M03 A2994 RMK A01 T02841025  RH  013%=      5-min Rain = 0
KAOS 132310Z 26006KT 28/M02 A2994 RMK A01 T02841023  RH  013%=      5-min Rain = 0
KAOS 132315Z 25009G14KT 28/M03 A2994 RMK A01 T02821026  RH  013%=      5-min Rain = 0
KAOS 132320Z 26009G14KT 28/M03 A2994 RMK A01 T02801029  RH  013%=      5-min Rain = 0
KAOS 132325Z 25010KT 28/M03 A2994 RMK A01 T02781031  RH  013%=      5-min Rain = 0
KAOS 132330Z 26007KT 28/M03 A2994 RMK A01 T02761032  RH  013%=      5-min Rain = 0
KAOS 132335Z 25008KT 27/M03 A2994 RMK A01 T02741029  RH  014%=      5-min Rain = 0
KAOS 132340Z 25006KT 27/M03 A2995 RMK A01 T02711025  RH  014%=      5-min Rain = 0
KAOS 132345Z 26005KT 27/M02 A2995 RMK A01 T02671024  RH  015%=      5-min Rain = 0
KAOS 132350Z 25006KT 26/M02 A2995 RMK A01 T02621022  RH  015%=      5-min Rain = 0
KAOS 132355Z 25006KT 26/M02 A2995 RMK A01 T02571020  RH  016%=      5-min Rain = 0
KAOS 140000Z 25006KT 25/M02 A2995 RMK A01 T02501017  RH  017%=      5-min Rain = 0
KAOS 140005Z 26006KT 24/M02 A2995 RMK A01 T02421015  RH  018%=      5-min Rain = 0
KAOS 140010Z 25007KT 23/M01 A2995 RMK A01 T02341013  RH  019%=      5-min Rain = 0
KAOS 140015Z 25007KT 23/M01 A2996 RMK A01 T02281012  RH  020%=      5-min Rain = 0
KAOS 140020Z 25007KT 22/M01 A2996 RMK A01 T02221011  RH  021%=      5-min Rain = 0
KAOS 140025Z 24007KT 22/M01 A2996 RMK A01 T02171010  RH  022%=      5-min Rain = 0
KAOS 140030Z 24007KT 21/M01 A2996 RMK A01 T02111009  RH  023%=      5-min Rain = 0
KAOS 140035Z 24008KT 21/M01 A2996 RMK A01 T02061007  RH  024%=      5-min Rain = 0
KAOS 140040Z 24008KT 20/M01 A2996 RMK A01 T02011005  RH  025%=      5-min Rain = 0
KAOS 140045Z 23008KT 20/M00 A2996 RMK A01 T01971004  RH  026%=      5-min Rain = 0
KAOS 140050Z 23008KT 20/M00 A2997 RMK A01 T01951003  RH  027%=      5-min Rain = 0
KAOS 140055Z 23009KT 20/M00 A2997 RMK A01 T01951003  RH  027%=      5-min Rain = 0
KAOS 140100Z 24008KT 19/M00 A2997 RMK A01 T01941002  RH  027%=      5-min Rain = 0
KAOS 140105Z 24008KT 19/M00 A2997 RMK A01 T01921002  RH  027%=      5-min Rain = 0
KAOS 140110Z 23008KT 19/M00 A2997 RMK A01 T01911002  RH  028%=      5-min Rain = 0
KAOS 140115Z 23008KT 19/M00 A2997 RMK A01 T01911001  RH  028%=      5-min Rain = 0
KAOS 140120Z 22008KT 18/00 A2998 RMK A01 T01840003  RH  030%=      5-min Rain = 0
KAOS 140125Z 22008KT 18/01 A2998 RMK A01 T01780005  RH  031%=      5-min Rain = 0
KAOS 140130Z 22009KT 18/01 A2998 RMK A01 T01750005  RH  032%=      5-min Rain = 0
KAOS 140135Z 22009KT 18/00 A2998 RMK A01 T01760004  RH  032%=      5-min Rain = 0
KAOS 140140Z 22008KT 18/00 A2998 RMK A01 T01780003  RH  031%=      5-min Rain = 0
KAOS 140145Z 22008KT 18/00 A2998 RMK A01 T01790002  RH  031%=      5-min Rain = 0
KAOS 140150Z 23008KT 18/00 A2998 RMK A01 T01800001  RH  030%=      5-min Rain = 0
KAOS 140155Z 23008KT 18/00 A2998 RMK A01 T01780001  RH  031%=      5-min Rain = 0
KAOS 140200Z 23008KT 18/00 A2998 RMK A01 T01750002  RH  031%=      5-min Rain = 0
KAOS 140205Z 23008KT 18/00 A2998 RMK A01 T01750002  RH  031%=      5-min Rain = 0
KAOS 140210Z 23008KT 18/00 A2998 RMK A01 T01750001  RH  031%=      5-min Rain = 0
KAOS 140215Z 23007KT 18/M00 A2998 RMK A01 T01771001  RH  030%=      5-min Rain = 0
KAOS 140220Z 23007KT 18/M00 A2998 RMK A01 T01801003  RH  029%=      5-min Rain = 0
KAOS 140225Z 23006KT 18/M00 A2998 RMK A01 T01801002  RH  030%=      5-min Rain = 0
KAOS 140230Z 24006KT 17/00 A2997 RMK A01 T01720000  RH  031%=      5-min Rain = 0
KAOS 140235Z 24005KT 17/00 A2997 RMK A01 T01650001  RH  033%=      5-min Rain = 0
KAOS 140240Z 24006KT 16/00 A2997 RMK A01 T01600001  RH  034%=      5-min Rain = 0
KAOS 140245Z 24008KT 17/M00 A2998 RMK A01 T01691002  RH  032%=      5-min Rain = 0
KAOS 140250Z 24008KT 18/M01 A2998 RMK A01 T01771005  RH  030%=      5-min Rain = 0
KAOS 140255Z 24006KT 18/M01 A2998 RMK A01 T01771005  RH  029%=      5-min Rain = 0
KAOS 140300Z 23006KT 17/M00 A2998 RMK A01 T01701003  RH  031%=      5-min Rain = 0
KAOS 140305Z 23007KT 17/M00 A2998 RMK A01 T01691004  RH  031%=      5-min Rain = 0
KAOS 140310Z 24007KT 17/M01 A2998 RMK A01 T01711005  RH  031%=      5-min Rain = 0
KAOS 140315Z 24007KT 17/M01 A2998 RMK A01 T01741006  RH  030%=      5-min Rain = 0
KAOS 140320Z 24007KT 17/M01 A2998 RMK A01 T01741006  RH  030%=      5-min Rain = 0
KAOS 140325Z 24007KT 17/M01 A2998 RMK A01 T01731005  RH  030%=      5-min Rain = 0
KAOS 140330Z 24008KT 17/M01 A2998 RMK A01 T01731005  RH  030%=      5-min Rain = 0
KAOS 140335Z 23008KT 17/M00 A2998 RMK A01 T01721004  RH  030%=      5-min Rain = 0
KAOS 140340Z 23007KT 17/M01 A2998 RMK A01 T01731005  RH  030%=      5-min Rain = 0
KAOS 140345Z 23007KT 17/M00 A2998 RMK A01 T01681002  RH  032%=      5-min Rain = 0
KAOS 140350Z 24010KT 17/M00 A2998 RMK A01 T01681003  RH  032%=      5-min Rain = 0
KAOS 140355Z 24009KT 18/M01 A2998 RMK A01 T01761005  RH  029%=      5-min Rain = 0
KAOS 140400Z 24009KT 17/M00 A2998 RMK A01 T01731004  RH  031%=      5-min Rain = 0
KAOS 140405Z 24008KT 17/M00 A2998 RMK A01 T01721003  RH  031%=      5-min Rain = 0
KAOS 140410Z 23009KT 17/M00 A2998 RMK A01 T01711003  RH  031%=      5-min Rain = 0
KAOS 140415Z 24008KT 17/M00 A2998 RMK A01 T01701002  RH  031%=      5-min Rain = 0
KAOS 140420Z 23008KT 17/M00 A2998 RMK A01 T01671002  RH  032%=      5-min Rain = 0
KAOS 140425Z 24008KT 17/M00 A2998 RMK A01 T01651001  RH  033%=      5-min Rain = 0
KAOS 140430Z 23007KT 16/00 A2998 RMK A01 T016300-0  RH  033%=      5-min Rain = 0
KAOS 140435Z 23005KT 16/00 A2998 RMK A01 T01570002  RH  035%=      5-min Rain = 0
KAOS 140440Z 22006KT 15/00 A2998 RMK A01 T01530004  RH  037%=      5-min Rain = 0
KAOS 140445Z 23006KT 14/01 A2998 RMK A01 T01430008  RH  040%=      5-min Rain = 0
KAOS 140450Z 23008KT 15/01 A2998 RMK A01 T01490006  RH  038%=      5-min Rain = 0
KAOS 140455Z 23008KT 16/01 A2998 RMK A01 T01550005  RH  036%=      5-min Rain = 0

Page generated in 0.0143 seconds.